Terminal Aerodrome Forecast
Issued by NWS St Louis, MO

Home | Current Version | Previous Version | Text Only | Print | Product List | Glossary On
Versions: 1 2 3 4 5 6 7 8 9 10 11 12 13 14 15 16 17 18 19 20 21 22 23
310
FTUS43 KLSX 282101 AAA
TAFSTL
TAF AMD
KSTL 282101Z 2821/2924 34013G20KT P6SM BKN050
     FM290200 33008KT P6SM SCT050
     FM291400 34012KT P6SM BKN025
     FM291800 34012KT P6SM SCT035=

USA.gov is the U.S. government's official web portal to all federal, state and local government web resources and services.